Fort Lauderdale Hollywood International Airport
KFLL : rendu visible

Aérodrome :











RETROUVEZ-NOUS SUR...

 
LOGIN :

S'inscrire | Disclaimer

   EN    FR    IT 

 









Légende :    VFR   VFR Marginal   IFR   IFR Intensif   IFR Très Intensif
Visi : 
Plafond : 
>= 8 km
>= 3000ft
5 à 8 km
1000 à 3000 ft
1500m à 5 km
500 à 1000 ft
800 à 1500m
200 à 500 ft
< 800m
< 200 ft
Symboles :   Orages  Brouillard  Fortes neiges  Fortes précipitations  Vent > 20 kt






- Altitude de l'aérodrome : 9 ft
- Code IATA : FLL


KFLL - Fort Lauderdale Hollywood International

DERNIER METAR :
  • 172353Z 06016G25KT 10SM FEW030 SCT039 OVC048 23/16 A3027 RMK AO2 PK WND 06028/2300 SLP249 60000 T02330161 10261 20233 53010 $

METARs EXPIRÉS :
  • 172253Z 06019G25KT 10SM FEW034 BKN048 OVC060 23/17 A3025 RMK AO2 PK WND 06026/2231 SLP244 T02330167 $
  • 172153Z 06018G26KT 10SM SCT030 BKN045 BKN055 23/18 A3025 RMK AO2 PK WND 06026/2152 SLP241 T02330178 $

TAF KFLL
Valide du 18 à 00h jusqu'au 19 à 06h UTC


172359Z 1800/1906 06019G25KT P6SM FEW035 BKN050 OVC060
TEMPO 1800/1804 BKN035
FM180900 09018KT P6SM FEW035 SCT090
FM181900 12017KT P6SM FEW025 SCT050
FM190200 12007KT P6SM FEW025 SCT060



MET'MAP, la Météo Aéronautique d'un coup d'oeil ! - Copyright ORBIFLY Décembre 2007 - Disclaimer

ORBIFLY MET'MAP TEAM :

Programmation & Développement : Alexandra Zaïnal
Sur une idée originale de : Baudouin d'Aumeries
Assistance à la programmation : Marc-Olivier Méhu
Soutien technique & logistique : Manuel Goepfert

Contact : metmap@orbifly.com




SOURCES & CREDITS :

   NOAA       Earth
Advisory